createdAt,value
2017-05-23T04:05:06.801Z,12.00
2017-05-23T04:07:35.148Z,12.00
2017-05-23T04:10:03.492Z,12.00
2017-05-23T04:12:31.826Z,11.90
2017-05-23T04:15:00.251Z,11.90
2017-05-23T04:17:28.592Z,11.90
2017-05-23T04:19:56.200Z,11.80
2017-05-23T04:22:24.492Z,11.90
2017-05-23T04:24:52.936Z,11.90
2017-05-23T04:27:21.277Z,11.90
2017-05-23T04:29:49.779Z,12.00
2017-05-23T04:32:18.213Z,12.00
2017-05-23T04:34:46.713Z,12.00
2017-05-23T04:37:15.004Z,12.00
2017-05-23T04:39:43.303Z,12.00
2017-05-23T04:42:11.701Z,12.00
2017-05-23T04:44:40.048Z,12.10
2017-05-23T04:47:08.357Z,12.10
2017-05-23T04:49:36.801Z,12.10
2017-05-23T04:52:05.088Z,12.20
2017-05-23T04:54:33.474Z,12.20
2017-05-23T04:57:01.813Z,12.30
2017-05-23T04:59:30.122Z,12.40
2017-05-23T05:01:58.492Z,12.40
2017-05-23T05:04:26.979Z,12.50
2017-05-23T05:06:55.450Z,12.60
2017-05-23T05:09:23.782Z,12.70
2017-05-23T05:11:52.159Z,12.80
2017-05-23T05:14:20.518Z,12.80
2017-05-23T05:16:48.178Z,12.70
2017-05-23T05:19:16.532Z,13.00
2017-05-23T05:21:44.948Z,13.00
2017-05-23T05:24:13.249Z,13.10
2017-05-23T05:26:41.580Z,13.20
2017-05-23T05:29:09.102Z,13.10
2017-05-23T05:31:37.493Z,13.30
2017-05-23T05:34:05.832Z,13.40
2017-05-23T05:36:34.454Z,13.40
2017-05-23T05:39:02.736Z,13.50
2017-05-23T05:41:31.204Z,13.50
2017-05-23T05:43:59.716Z,13.60
2017-05-23T05:46:28.064Z,13.60
2017-05-23T05:48:56.379Z,13.70
2017-05-23T05:51:24.659Z,13.80
2017-05-23T05:53:52.990Z,13.80
2017-05-23T05:56:21.289Z,13.90
2017-05-23T05:58:49.575Z,14.00
2017-05-23T06:01:17.904Z,14.10
2017-05-23T06:03:46.217Z,14.10
2017-05-23T06:06:14.682Z,14.20
2017-05-23T06:08:43.078Z,14.30
2017-05-23T06:11:11.447Z,14.40
2017-05-23T06:14:00.520Z,14.50
2017-05-23T06:16:28.875Z,14.60
2017-05-23T06:18:57.322Z,14.70
2017-05-23T06:21:25.600Z,14.80
2017-05-23T06:23:54.070Z,14.90
2017-05-23T06:26:22.686Z,15.00
2017-05-23T06:28:51.086Z,15.10
2017-05-23T06:31:19.381Z,15.30
2017-05-23T06:33:47.716Z,15.30
2017-05-23T06:36:16.187Z,15.50
2017-05-23T06:38:44.648Z,15.50
2017-05-23T06:41:13.087Z,15.60
2017-05-23T06:43:41.548Z,15.70
2017-05-23T06:46:10.112Z,15.80
2017-05-23T06:48:38.400Z,15.90
2017-05-23T06:51:06.729Z,15.90
2017-05-23T06:53:34.343Z,15.90
2017-05-23T06:56:02.636Z,16.10
2017-05-23T06:58:30.972Z,16.10
2017-05-23T07:00:59.349Z,16.20
2017-05-23T07:03:27.676Z,16.30
2017-05-23T07:05:56.087Z,16.30
2017-05-23T07:08:24.374Z,16.40
2017-05-23T07:10:52.720Z,16.40
2017-05-23T07:13:21.311Z,16.50
2017-05-23T07:15:49.600Z,16.50
2017-05-23T07:18:17.997Z,16.60
2017-05-23T07:20:46.284Z,16.60
2017-05-23T07:23:14.806Z,16.70
2017-05-23T07:25:43.178Z,16.70
2017-05-23T07:28:11.488Z,16.80
2017-05-23T07:30:39.796Z,16.90
2017-05-23T07:33:08.136Z,17.00
2017-05-23T07:35:36.587Z,17.00
2017-05-23T07:38:05.044Z,17.10
2017-05-23T07:40:33.388Z,17.20
2017-05-23T07:43:01.752Z,17.30
2017-05-23T07:45:30.136Z,17.40
2017-05-23T07:47:58.428Z,17.50
2017-05-23T07:50:26.875Z,17.60
2017-05-23T07:52:55.169Z,17.80
2017-05-23T07:55:23.686Z,17.90
2017-05-23T07:57:52.076Z,18.00
2017-05-23T08:00:20.366Z,18.10
2017-05-23T08:02:48.789Z,18.20
2017-05-23T08:05:17.114Z,18.30
2017-05-23T08:07:45.526Z,18.40
2017-05-23T08:10:14.010Z,18.50
2017-05-23T08:12:42.369Z,18.70
2017-05-23T08:15:10.772Z,18.70
2017-05-23T08:17:39.186Z,18.80
2017-05-23T08:20:07.586Z,18.90
2017-05-23T08:22:35.876Z,19.00
2017-05-23T08:25:04.205Z,19.10
2017-05-23T08:27:32.795Z,19.10
2017-05-23T08:30:01.291Z,19.20
2017-05-23T08:32:29.725Z,19.20
2017-05-23T08:34:58.172Z,19.30
2017-05-23T08:37:26.508Z,19.30
2017-05-23T08:39:54.828Z,19.40
2017-05-23T08:42:23.117Z,19.40
2017-05-23T08:44:51.447Z,19.50
2017-05-23T08:47:19.731Z,19.50
2017-05-23T08:49:48.189Z,19.50
2017-05-23T08:52:16.636Z,19.60
2017-05-23T08:54:44.952Z,19.60
2017-05-23T08:57:13.244Z,19.70
2017-05-23T08:59:41.572Z,19.80
2017-05-23T09:02:09.860Z,19.80
2017-05-23T09:04:38.149Z,19.90
2017-05-23T09:07:06.657Z,19.90
2017-05-23T09:09:35.111Z,19.90
2017-05-23T09:12:03.458Z,20.00
2017-05-23T09:14:31.112Z,19.90
2017-05-23T09:16:59.395Z,20.10
2017-05-23T09:19:27.752Z,20.10
2017-05-23T09:21:56.145Z,20.10
2017-05-23T09:24:24.477Z,20.20
2017-05-23T09:26:58.500Z,20.20
2017-05-23T09:29:26.843Z,20.20
2017-05-23T09:31:55.128Z,20.20
2017-05-23T09:34:23.686Z,20.30
2017-05-23T09:36:52.076Z,20.30
2017-05-23T09:39:20.445Z,20.30
2017-05-23T09:41:48.732Z,20.40
2017-05-23T09:44:17.025Z,20.50
2017-05-23T09:46:44.713Z,20.40
2017-05-23T09:49:13.051Z,20.60
2017-05-23T09:51:41.381Z,20.60
2017-05-23T09:54:09.791Z,20.70
2017-05-23T09:56:38.217Z,20.80
2017-05-23T09:59:06.596Z,20.90
2017-05-23T10:01:34.901Z,21.00
2017-05-23T10:04:03.237Z,21.00
2017-05-23T10:06:31.614Z,21.10
2017-05-23T10:08:59.949Z,21.10
2017-05-23T10:11:28.279Z,21.20
2017-05-23T10:13:56.611Z,21.20
2017-05-23T10:16:24.902Z,21.30
2017-05-23T10:18:53.208Z,21.30
2017-05-23T10:21:21.684Z,21.40
2017-05-23T10:23:50.204Z,21.50
2017-05-23T10:26:18.673Z,21.50
2017-05-23T10:28:47.001Z,21.50
2017-05-23T10:31:15.296Z,21.60
2017-05-23T10:33:43.584Z,21.70
2017-05-23T10:36:11.920Z,21.80
2017-05-23T10:38:40.274Z,21.80
2017-05-23T10:41:08.746Z,21.90
2017-05-23T10:43:37.283Z,21.90
2017-05-23T10:46:05.599Z,22.00
2017-05-23T10:48:34.107Z,22.00
2017-05-23T10:51:02.601Z,22.00
2017-05-23T10:53:31.477Z,22.20
2017-05-23T10:55:59.768Z,22.20
2017-05-23T10:58:28.197Z,22.30
2017-05-23T11:00:56.594Z,22.30
2017-05-23T11:03:24.986Z,22.40
2017-05-23T11:05:53.310Z,22.40
2017-05-23T11:08:21.603Z,22.40
2017-05-23T11:10:50.080Z,22.50
2017-05-23T11:13:18.388Z,22.60
2017-05-23T11:15:46.676Z,22.60
2017-05-23T11:18:15.154Z,22.60
2017-05-23T11:20:43.510Z,22.70
2017-05-23T11:23:11.812Z,22.70
2017-05-23T11:25:40.096Z,22.80
2017-05-23T11:28:08.417Z,22.90
2017-05-23T11:30:36.713Z,22.90
2017-05-23T11:33:05.040Z,22.90
2017-05-23T11:35:33.333Z,23.00
2017-05-23T11:38:01.616Z,23.00
2017-05-23T11:40:30.155Z,23.00
2017-05-23T11:42:58.472Z,23.10
2017-05-23T11:45:26.755Z,23.10
2017-05-23T11:47:55.104Z,23.10
2017-05-23T11:50:23.436Z,23.10
2017-05-23T11:52:51.840Z,23.10
2017-05-23T11:55:20.186Z,23.10
2017-05-23T11:57:48.475Z,23.10
2017-05-23T12:00:16.816Z,23.10
2017-05-23T12:02:45.157Z,23.10
2017-05-23T12:05:13.488Z,23.10
2017-05-23T12:07:41.833Z,23.10
2017-05-23T12:10:10.133Z,23.10
2017-05-23T12:12:38.417Z,23.10
2017-05-23T12:15:06.783Z,23.10
2017-05-23T12:17:35.089Z,23.10
2017-05-23T12:20:03.472Z,23.00
2017-05-23T12:22:31.787Z,23.00
2017-05-23T12:24:59.315Z,23.00
2017-05-23T12:27:27.645Z,23.10
2017-05-23T12:29:55.947Z,23.10
2017-05-23T12:32:24.380Z,23.10
2017-05-23T12:34:52.724Z,23.10
2017-05-23T12:37:21.016Z,23.10
2017-05-23T12:39:49.331Z,23.10
2017-05-23T12:42:17.697Z,23.10
2017-05-23T12:44:46.040Z,23.10
2017-05-23T12:47:14.322Z,23.10
2017-05-23T12:49:42.868Z,23.10
2017-05-23T12:52:11.397Z,23.10
2017-05-23T12:54:39.823Z,23.10
2017-05-23T12:57:08.116Z,23.10
2017-05-23T12:59:36.401Z,23.10
2017-05-23T13:02:04.790Z,23.10
2017-05-23T13:04:33.169Z,23.20
2017-05-23T13:07:01.687Z,23.20
2017-05-23T13:09:30.102Z,23.20
2017-05-23T13:11:58.472Z,23.20
2017-05-23T13:14:26.896Z,23.20
2017-05-23T13:16:55.230Z,23.20
2017-05-23T13:19:23.570Z,23.20
2017-05-23T13:21:52.788Z,23.20
2017-05-23T13:24:21.146Z,23.30
2017-05-23T13:26:49.493Z,23.30
2017-05-23T13:29:17.847Z,23.30
2017-05-23T13:31:46.173Z,23.30
2017-05-23T13:34:14.537Z,23.30
2017-05-23T13:36:42.825Z,23.30
2017-05-23T13:39:11.128Z,23.30
2017-05-23T13:41:39.548Z,23.30
2017-05-23T13:44:07.856Z,23.30
2017-05-23T13:46:36.188Z,23.30
2017-05-23T13:49:04.613Z,23.30
2017-05-23T13:51:32.891Z,23.30
2017-05-23T13:54:01.244Z,23.30
2017-05-23T13:56:29.541Z,23.20
2017-05-23T13:58:58.000Z,23.20
2017-05-23T14:01:26.348Z,23.20
2017-05-23T14:03:54.637Z,23.20
2017-05-23T14:06:23.112Z,23.20
2017-05-23T14:08:51.435Z,23.20
2017-05-23T14:11:19.724Z,23.20
2017-05-23T14:13:48.048Z,23.20
2017-05-23T14:16:16.558Z,23.20
2017-05-23T14:18:45.869Z,23.20
2017-05-23T14:21:14.468Z,23.10
2017-05-23T14:23:42.872Z,23.10
2017-05-23T14:26:11.316Z,23.00
2017-05-23T14:28:39.693Z,23.10
2017-05-23T14:31:08.016Z,23.00
2017-05-23T14:33:36.373Z,23.00
2017-05-23T14:36:04.664Z,22.90
2017-05-23T14:38:32.969Z,22.90
2017-05-23T14:41:01.297Z,22.90
2017-05-23T14:43:29.589Z,22.80
2017-05-23T14:45:57.887Z,22.70
2017-05-23T14:48:26.256Z,22.70
2017-05-23T14:50:54.544Z,22.70
2017-05-23T14:53:22.248Z,22.60
2017-05-23T14:55:50.528Z,22.50
2017-05-23T14:58:18.855Z,22.50
2017-05-23T15:00:47.157Z,22.40
2017-05-23T15:03:15.549Z,22.40
2017-05-23T15:05:43.830Z,22.30
2017-05-23T15:08:12.115Z,22.30
2017-05-23T15:10:40.473Z,22.20
2017-05-23T15:13:08.791Z,22.20
2017-05-23T15:15:37.082Z,22.10
2017-05-23T15:18:05.574Z,22.00
2017-05-23T15:20:33.883Z,22.00
2017-05-23T15:23:02.343Z,21.90
2017-05-23T15:25:30.685Z,21.90
2017-05-23T15:27:58.979Z,21.90
2017-05-23T15:30:27.488Z,21.90
2017-05-23T15:32:55.851Z,21.80
2017-05-23T15:35:24.184Z,21.80
2017-05-23T15:37:52.466Z,21.80
2017-05-23T15:40:20.759Z,21.70
2017-05-23T15:42:49.092Z,21.70
2017-05-23T15:45:17.372Z,21.70
2017-05-23T15:47:45.688Z,21.60
2017-05-23T15:50:13.976Z,21.60
2017-05-23T15:52:42.309Z,21.60
2017-05-23T15:55:10.592Z,21.60
2017-05-23T15:57:39.005Z,21.50
2017-05-23T16:00:08.076Z,21.50
2017-05-23T16:02:36.397Z,21.50
2017-05-23T16:05:04.900Z,21.40
2017-05-23T16:07:33.193Z,21.40
2017-05-23T16:10:01.623Z,21.40
2017-05-23T16:12:29.949Z,21.40
2017-05-23T16:14:58.236Z,21.40
2017-05-23T16:17:26.681Z,21.30
2017-05-23T16:19:55.189Z,21.30
2017-05-23T16:22:23.557Z,21.30
2017-05-23T16:24:51.934Z,21.30
2017-05-23T16:27:20.230Z,21.30
2017-05-23T16:29:48.570Z,21.20
2017-05-23T16:32:16.901Z,21.20
2017-05-23T16:34:45.181Z,21.20
2017-05-23T16:37:13.587Z,21.20
2017-05-23T16:39:42.086Z,21.20
2017-05-23T16:42:10.376Z,21.20
2017-05-23T16:44:38.798Z,21.10
2017-05-23T16:47:07.223Z,21.10
2017-05-23T16:49:35.514Z,21.10
2017-05-23T16:52:03.800Z,21.10
2017-05-23T16:54:32.179Z,21.00
2017-05-23T16:57:00.465Z,21.10
2017-05-23T16:59:28.756Z,21.00
2017-05-23T17:01:57.090Z,21.00
2017-05-23T17:04:25.709Z,21.00
2017-05-23T17:06:53.881Z,20.90
2017-05-23T17:09:22.225Z,21.00
2017-05-23T17:11:50.516Z,21.00
2017-05-23T17:14:18.801Z,21.00
2017-05-23T17:16:47.219Z,20.90
2017-05-23T17:19:15.516Z,20.90
2017-05-23T17:21:43.842Z,20.90
2017-05-23T17:24:12.179Z,20.90
2017-05-23T17:26:40.542Z,20.90
2017-05-23T17:29:08.830Z,20.90
2017-05-23T17:31:37.316Z,20.80
2017-05-23T17:34:05.596Z,20.80
2017-05-23T17:36:34.038Z,20.80
2017-05-23T17:39:02.370Z,20.80
2017-05-23T17:41:30.708Z,20.80
2017-05-23T17:43:58.997Z,20.80
2017-05-23T17:46:27.497Z,20.70
2017-05-23T17:48:55.983Z,20.70
2017-05-23T17:51:24.490Z,20.70
2017-05-23T17:53:52.848Z,20.70
2017-05-23T17:56:21.186Z,20.60
2017-05-23T17:58:49.570Z,20.60
2017-05-23T18:01:17.870Z,20.60
2017-05-23T18:03:46.278Z,20.60
2017-05-23T18:06:14.649Z,20.50
2017-05-23T18:08:42.180Z,20.50
2017-05-23T18:11:10.786Z,20.50
2017-05-23T18:13:39.154Z,20.50
2017-05-23T18:16:07.612Z,20.40
2017-05-23T18:18:35.974Z,20.40
2017-05-23T18:21:04.273Z,20.40
2017-05-23T18:23:32.656Z,20.30
2017-05-23T18:26:01.123Z,20.30
2017-05-23T18:28:29.483Z,20.30
2017-05-23T18:30:57.894Z,20.20
2017-05-23T18:33:26.221Z,20.20
2017-05-23T18:35:54.668Z,20.20
2017-05-23T18:38:23.024Z,20.10
2017-05-23T18:40:51.312Z,20.10
2017-05-23T18:43:19.677Z,20.00
2017-05-23T18:45:48.832Z,20.00
2017-05-23T18:48:17.145Z,20.00
2017-05-23T18:50:45.457Z,19.90
2017-05-23T18:53:13.793Z,19.90
2017-05-23T18:55:41.340Z,19.80
2017-05-23T18:58:09.636Z,19.80
2017-05-23T19:00:37.985Z,19.80
2017-05-23T19:03:06.271Z,19.70
2017-05-23T19:05:34.751Z,19.70
2017-05-23T19:08:03.085Z,19.70
2017-05-23T19:10:31.384Z,19.60
2017-05-23T19:12:59.677Z,19.60
2017-05-23T19:15:28.004Z,19.50
2017-05-23T19:17:56.405Z,19.50
2017-05-23T19:20:24.692Z,19.40
2017-05-23T19:22:53.030Z,19.40
2017-05-23T19:25:20.623Z,19.30
2017-05-23T19:27:48.914Z,19.30
2017-05-23T19:30:17.205Z,19.30
2017-05-23T19:32:45.570Z,19.20
2017-05-23T19:35:13.857Z,19.20
2017-05-23T19:37:42.396Z,19.10
2017-05-23T19:40:10.808Z,19.10
2017-05-23T19:42:39.099Z,19.10
2017-05-23T19:45:07.404Z,19.00
2017-05-23T19:47:35.744Z,19.00
2017-05-23T19:50:04.034Z,18.90
2017-05-23T19:52:32.816Z,18.90
2017-05-23T19:55:01.129Z,18.80
2017-05-23T19:57:29.457Z,18.80
2017-05-23T19:59:57.857Z,18.80
2017-05-23T20:02:26.152Z,18.70
2017-05-23T20:04:54.448Z,18.70
2017-05-23T20:07:22.881Z,18.60
2017-05-23T20:09:51.339Z,18.60
2017-05-23T20:12:19.680Z,18.60
2017-05-23T20:14:48.218Z,18.50
2017-05-23T20:17:16.550Z,18.50
2017-05-23T20:19:44.859Z,18.40
2017-05-23T20:22:13.198Z,18.40
2017-05-23T20:24:41.496Z,18.40
2017-05-23T20:27:09.821Z,18.30
2017-05-23T20:29:38.171Z,18.30
2017-05-23T20:32:06.469Z,18.30
2017-05-23T20:34:34.761Z,18.20
2017-05-23T20:37:03.129Z,18.20
2017-05-23T20:39:31.539Z,18.10
2017-05-23T20:41:59.846Z,18.10
2017-05-23T20:44:28.355Z,18.10
2017-05-23T20:46:56.651Z,18.00
2017-05-23T20:49:24.950Z,18.00
2017-05-23T20:51:53.424Z,18.00
2017-05-23T20:54:21.724Z,18.00
2017-05-23T20:56:50.088Z,17.90
2017-05-23T20:59:18.430Z,17.90
2017-05-23T21:01:46.773Z,17.80
2017-05-23T21:04:14.313Z,17.80
2017-05-23T21:06:42.604Z,17.80
2017-05-23T21:09:11.178Z,17.70
2017-05-23T21:11:39.490Z,17.70
2017-05-23T21:14:07.776Z,17.70
2017-05-23T21:16:36.123Z,17.60
2017-05-23T21:19:04.409Z,17.60
2017-05-23T21:21:32.700Z,17.60
2017-05-23T21:24:00.267Z,17.50
2017-05-23T21:26:28.568Z,17.50
2017-05-23T21:28:56.974Z,17.50
2017-05-23T21:31:25.317Z,17.50
2017-05-23T21:33:53.889Z,17.50
2017-05-23T21:36:22.197Z,17.40
2017-05-23T21:38:50.552Z,17.40
2017-05-23T21:41:18.902Z,17.40
2017-05-23T21:43:47.242Z,17.40
2017-05-23T21:46:15.544Z,17.30
2017-05-23T21:48:43.988Z,17.30
2017-05-23T21:51:12.377Z,17.30
2017-05-23T21:53:40.741Z,17.30
